createdAt,value
2023-04-21T00:00:16.727Z,91.5
2023-04-21T00:01:17.285Z,91.4
2023-04-21T00:02:17.247Z,91.3
2023-04-21T00:03:17.242Z,91.4
2023-04-21T00:04:17.340Z,91.4
2023-04-21T00:05:17.238Z,91.7
2023-04-21T00:06:16.840Z,91.7
2023-04-21T00:07:17.448Z,91.7
2023-04-21T00:08:16.991Z,91.6
2023-04-21T00:09:16.773Z,91.5
2023-04-21T00:10:17.379Z,91.5
2023-04-21T00:11:16.933Z,91.6
2023-04-21T00:12:16.731Z,91.9
2023-04-21T00:13:17.300Z,92.0
2023-04-21T00:14:16.836Z,92.0
2023-04-21T00:15:17.440Z,91.9
2023-04-21T00:16:17.160Z,91.8
2023-04-21T00:17:16.791Z,91.8
2023-04-21T00:18:17.353Z,91.8
2023-04-21T00:19:17.395Z,91.7
2023-04-21T00:20:17.039Z,91.7
2023-04-21T00:21:16.626Z,91.7
2023-04-21T00:22:16.594Z,91.8
2023-04-21T00:23:17.159Z,91.8
2023-04-21T00:24:16.714Z,92.0
2023-04-21T00:25:17.247Z,91.9
2023-04-21T00:26:16.854Z,91.9
2023-04-21T00:27:17.494Z,91.8
2023-04-21T00:28:17.094Z,91.9
2023-04-21T00:29:17.137Z,92.0
2023-04-21T00:30:16.807Z,92.1
2023-04-21T00:31:17.460Z,92.0
2023-04-21T00:32:17.527Z,92.3
2023-04-21T00:33:17.101Z,92.3
2023-04-21T00:34:16.647Z,92.1
2023-04-21T00:35:17.221Z,92.1
2023-04-21T00:36:16.805Z,92.2
2023-04-21T00:37:17.405Z,92.2
2023-04-21T00:38:16.962Z,92.1
2023-04-21T00:39:16.690Z,92.2
2023-04-21T00:40:17.374Z,92.1
2023-04-21T00:41:16.952Z,92.2
2023-04-21T00:42:17.130Z,92.4
2023-04-21T00:43:16.748Z,92.4
2023-04-21T00:44:17.363Z,92.7
2023-04-21T00:45:16.910Z,92.7
2023-04-21T00:46:17.560Z,92.7
2023-04-21T00:47:17.116Z,92.8
2023-04-21T00:48:16.666Z,93.0
2023-04-21T00:49:17.857Z,92.9
2023-04-21T00:50:16.592Z,93.0
2023-04-21T00:51:17.136Z,93.0
2023-04-21T00:52:17.220Z,93.2
2023-04-21T00:53:16.766Z,93.3
2023-04-21T00:54:17.324Z,93.6
2023-04-21T00:55:16.937Z,93.7
2023-04-21T00:56:17.492Z,93.6
2023-04-21T00:57:17.055Z,93.6
2023-04-21T00:58:16.599Z,93.6
2023-04-21T00:59:17.536Z,93.6
2023-04-21T01:00:17.225Z,93.6
2023-04-21T01:01:16.828Z,93.6
2023-04-21T01:02:17.846Z,93.9
2023-04-21T01:03:17.820Z,93.9
2023-04-21T01:04:16.688Z,94.0
2023-04-21T01:05:17.286Z,94.2
2023-04-21T01:06:16.862Z,94.3
2023-04-21T01:07:17.404Z,94.5
2023-04-21T01:08:16.966Z,94.6
2023-04-21T01:09:16.811Z,94.7
2023-04-21T01:10:17.435Z,94.9
2023-04-21T01:11:17.017Z,94.8
2023-04-21T01:12:16.848Z,94.8
2023-04-21T01:13:17.428Z,94.8
2023-04-21T01:14:16.990Z,94.8
2023-04-21T01:15:16.526Z,94.7
2023-04-21T01:16:17.163Z,94.7
2023-04-21T01:17:16.722Z,94.8
2023-04-21T01:18:17.275Z,94.7
2023-04-21T01:19:17.376Z,94.7
2023-04-21T01:20:17.079Z,94.6
2023-04-21T01:21:16.620Z,94.9
2023-04-21T01:22:16.927Z,94.8
2023-04-21T01:23:17.470Z,94.7
2023-04-21T01:24:17.041Z,94.8
2023-04-21T01:25:16.632Z,94.8
2023-04-21T01:26:17.163Z,94.8
2023-04-21T01:27:16.776Z,94.9
2023-04-21T01:28:17.330Z,94.9
2023-04-21T01:29:17.537Z,94.8
2023-04-21T01:30:17.233Z,94.8
2023-04-21T01:31:16.773Z,94.6
2023-04-21T01:32:17.084Z,94.6
2023-04-21T01:33:16.775Z,94.6
2023-04-21T01:34:17.411Z,94.6
2023-04-21T01:35:16.974Z,94.7
2023-04-21T01:36:16.540Z,94.7
2023-04-21T01:37:17.112Z,94.8
2023-04-21T01:38:19.799Z,94.8
2023-04-21T01:39:17.987Z,94.7
2023-04-21T01:40:16.739Z,94.7
2023-04-21T01:41:17.314Z,94.6
2023-04-21T01:42:17.199Z,94.6
2023-04-21T01:43:16.792Z,94.5
2023-04-21T01:44:17.350Z,94.6
2023-04-21T01:45:16.893Z,94.6
2023-04-21T01:46:17.525Z,94.5
2023-04-21T01:47:17.092Z,94.5
2023-04-21T01:48:16.751Z,94.4
2023-04-21T01:49:17.817Z,94.5
2023-04-21T01:50:16.521Z,94.5
2023-04-21T01:51:17.094Z,94.5
2023-04-21T01:52:17.033Z,94.5
2023-04-21T01:53:16.647Z,94.5
2023-04-21T01:54:17.193Z,94.5
2023-04-21T01:55:16.762Z,94.6
2023-04-21T01:56:17.343Z,94.6
2023-04-21T01:57:17.050Z,94.7
2023-04-21T01:58:16.654Z,95.0
2023-04-21T01:59:17.730Z,95.1
2023-04-21T02:00:17.435Z,95.2
2023-04-21T02:01:17.121Z,95.3
2023-04-21T02:02:17.705Z,95.3
2023-04-21T02:03:17.723Z,95.4
2023-04-21T02:04:17.785Z,95.5
2023-04-21T02:05:17.422Z,95.7
2023-04-21T02:06:16.957Z,95.7
2023-04-21T02:07:17.517Z,95.7
2023-04-21T02:08:17.050Z,95.6
2023-04-21T02:09:16.944Z,95.7
2023-04-21T02:10:16.633Z,95.6
2023-04-21T02:11:17.202Z,95.7
2023-04-21T02:12:17.486Z,95.8
2023-04-21T02:13:17.052Z,95.8
2023-04-21T02:14:16.651Z,95.8
2023-04-21T02:15:17.232Z,95.7
2023-04-21T02:16:16.830Z,95.7
2023-04-21T02:17:17.404Z,95.6
2023-04-21T02:18:17.059Z,95.7
2023-04-21T02:19:17.095Z,95.6
2023-04-21T02:20:16.910Z,95.6
2023-04-21T02:21:17.477Z,95.3
2023-04-21T02:22:17.468Z,95.4
2023-04-21T02:23:17.004Z,95.4
2023-04-21T02:24:16.552Z,95.5
2023-04-21T02:25:17.136Z,95.4
2023-04-21T02:26:16.664Z,95.5
2023-04-21T02:27:17.220Z,95.5
2023-04-21T02:28:16.755Z,95.5
2023-04-21T02:29:17.781Z,95.6
2023-04-21T02:30:17.764Z,95.8
2023-04-21T02:31:17.434Z,96.0
2023-04-21T02:32:26.105Z,96.1
2023-04-21T02:33:16.983Z,96.0
2023-04-21T02:34:16.582Z,96.0
2023-04-21T02:35:17.132Z,96.0
2023-04-21T02:36:16.708Z,95.9
2023-04-21T02:37:17.241Z,96.0
2023-04-21T02:38:16.835Z,96.2
2023-04-21T02:39:17.876Z,96.2
2023-04-21T02:40:16.665Z,96.1
2023-04-21T02:41:17.258Z,96.0
2023-04-21T02:42:16.856Z,96.0
2023-04-21T02:43:17.372Z,95.9
2023-04-21T02:44:16.930Z,95.9
2023-04-21T02:45:17.472Z,95.9
2023-04-21T02:46:17.077Z,96.0
2023-04-21T02:47:16.636Z,96.1
2023-04-21T02:48:17.254Z,96.1
2023-04-21T02:49:17.308Z,96.1
2023-04-21T02:50:17.086Z,96.1
2023-04-21T02:51:16.654Z,96.0
2023-04-21T02:52:16.963Z,96.0
2023-04-21T02:53:16.505Z,96.0
2023-04-21T02:54:17.044Z,96.1
2023-04-21T02:55:16.613Z,96.1
2023-04-21T02:56:17.194Z,96.1
2023-04-21T02:57:16.733Z,96.3
2023-04-21T02:58:17.278Z,96.2
2023-04-21T02:59:17.123Z,96.1
2023-04-21T03:00:16.760Z,96.0
2023-04-21T03:01:17.614Z,96.1
2023-04-21T03:02:16.794Z,96.2
2023-04-21T03:03:17.713Z,96.1
2023-04-21T03:04:17.730Z,96.2
2023-04-21T03:05:17.336Z,96.1
2023-04-21T03:06:16.880Z,96.1
2023-04-21T03:07:17.476Z,96.2
2023-04-21T03:08:17.066Z,96.2
2023-04-21T03:09:16.765Z,96.2
2023-04-21T03:10:17.361Z,96.2
2023-04-21T03:11:16.952Z,96.3
2023-04-21T03:12:16.781Z,96.4
2023-04-21T03:13:17.341Z,96.3
2023-04-21T03:14:16.891Z,96.3
2023-04-21T03:15:17.426Z,96.5
2023-04-21T03:16:17.073Z,96.4
2023-04-21T03:17:16.623Z,96.3
2023-04-21T03:18:17.182Z,96.2
2023-04-21T03:19:17.086Z,96.2
2023-04-21T03:20:16.720Z,96.2
2023-04-21T03:21:17.248Z,96.2
2023-04-21T03:22:16.765Z,96.3
2023-04-21T03:23:17.334Z,96.3
2023-04-21T03:24:16.869Z,96.2
2023-04-21T03:25:17.428Z,96.3
2023-04-21T03:26:17.008Z,96.4
2023-04-21T03:27:16.613Z,96.6
2023-04-21T03:28:17.220Z,96.6
2023-04-21T03:29:17.068Z,96.6
2023-04-21T03:30:16.820Z,96.6
2023-04-21T03:31:17.394Z,96.6
2023-04-21T03:32:16.851Z,96.6
2023-04-21T03:33:17.435Z,96.6
2023-04-21T03:34:17.014Z,96.4
2023-04-21T03:35:16.586Z,96.4
2023-04-21T03:36:17.126Z,96.5
2023-04-21T03:37:16.658Z,96.4
2023-04-21T03:38:17.206Z,96.4
2023-04-21T03:39:20.759Z,96.4
2023-04-21T03:40:17.413Z,96.4
2023-04-21T03:41:16.926Z,96.5
2023-04-21T03:42:17.198Z,96.5
2023-04-21T03:43:16.768Z,96.5
2023-04-21T03:44:17.320Z,96.5
2023-04-21T03:45:16.913Z,96.4
2023-04-21T03:46:17.543Z,96.4
2023-04-21T03:47:17.150Z,96.5
2023-04-21T03:48:16.762Z,96.5
2023-04-21T03:49:17.340Z,96.6
2023-04-21T03:50:16.932Z,96.5
2023-04-21T03:51:17.520Z,96.5
2023-04-21T03:52:16.771Z,96.5
2023-04-21T03:53:17.303Z,96.4
2023-04-21T03:54:16.875Z,96.5
2023-04-21T03:55:17.447Z,96.5
2023-04-21T03:56:17.006Z,96.6
2023-04-21T03:57:16.546Z,96.6
2023-04-21T03:58:17.288Z,96.6
2023-04-21T03:59:17.214Z,96.5
2023-04-21T04:00:17.022Z,96.5
2023-04-21T04:01:16.560Z,96.6
2023-04-21T04:02:16.687Z,96.6
2023-04-21T04:03:18.751Z,96.6
2023-04-21T04:04:17.663Z,96.6
2023-04-21T04:05:17.506Z,96.7
2023-04-21T04:06:17.164Z,96.6
2023-04-21T04:07:16.703Z,96.7
2023-04-21T04:08:17.227Z,96.7
2023-04-21T04:09:17.051Z,96.9
2023-04-21T04:10:16.760Z,97.0
2023-04-21T04:11:17.323Z,97.0
2023-04-21T04:12:16.623Z,97.0
2023-04-21T04:13:17.228Z,96.9
2023-04-21T04:14:16.808Z,96.8
2023-04-21T04:15:17.369Z,96.8
2023-04-21T04:16:16.981Z,97.3
2023-04-21T04:17:16.573Z,96.9
2023-04-21T04:18:17.107Z,96.8
2023-04-21T04:19:16.634Z,96.9
2023-04-21T04:20:17.171Z,96.9
2023-04-21T04:21:16.724Z,96.8
2023-04-21T04:22:16.673Z,96.8
2023-04-21T04:23:17.269Z,96.6
2023-04-21T04:24:16.829Z,96.7
2023-04-21T04:25:17.397Z,96.6
2023-04-21T04:26:16.956Z,96.6
2023-04-21T04:27:17.478Z,96.5
2023-04-21T04:28:16.997Z,96.7
2023-04-21T04:29:16.742Z,96.9
2023-04-21T04:30:17.332Z,97.1
2023-04-21T04:31:16.974Z,97.0
2023-04-21T04:32:16.759Z,97.0
2023-04-21T04:33:17.345Z,96.9
2023-04-21T04:34:16.891Z,96.9
2023-04-21T04:35:17.466Z,96.8
2023-04-21T04:36:17.028Z,96.9
2023-04-21T04:37:16.588Z,96.8
2023-04-21T04:38:17.136Z,96.8
2023-04-21T04:39:16.786Z,96.7
2023-04-21T04:40:17.309Z,96.6
2023-04-21T04:41:16.899Z,96.6
2023-04-21T04:42:17.211Z,96.8
2023-04-21T04:43:16.765Z,96.6
2023-04-21T04:44:17.483Z,96.5
2023-04-21T04:45:17.120Z,96.5
2023-04-21T04:46:16.742Z,96.5
2023-04-21T04:47:17.407Z,96.5
2023-04-21T04:48:16.983Z,96.5
2023-04-21T04:49:16.540Z,96.4
2023-04-21T04:50:17.108Z,96.3
2023-04-21T04:51:16.651Z,96.3
2023-04-21T04:52:16.573Z,96.0
2023-04-21T04:53:17.151Z,96.1
2023-04-21T04:54:16.844Z,96.0
2023-04-21T04:55:16.510Z,96.0
2023-04-21T04:56:17.112Z,96.1
2023-04-21T04:57:16.660Z,96.2
2023-04-21T04:58:17.236Z,96.2
2023-04-21T04:59:16.809Z,96.2
2023-04-21T05:00:17.370Z,96.3
2023-04-21T05:01:16.967Z,96.3
2023-04-21T05:02:17.339Z,96.2
2023-04-21T05:03:17.222Z,96.3
2023-04-21T05:04:17.589Z,96.3
2023-04-21T05:05:17.585Z,96.2
2023-04-21T05:06:17.174Z,96.2
2023-04-21T05:07:16.739Z,96.2
2023-04-21T05:08:18.418Z,96.2
2023-04-21T05:09:16.964Z,96.2
2023-04-21T05:10:16.570Z,96.2
2023-04-21T05:11:17.146Z,96.2
2023-04-21T05:12:16.815Z,96.2
2023-04-21T05:13:17.414Z,96.1
2023-04-21T05:14:17.090Z,96.0
2023-04-21T05:15:16.733Z,96.0
2023-04-21T05:16:17.436Z,96.0
2023-04-21T05:17:16.989Z,96.0
2023-04-21T05:18:16.566Z,96.0
2023-04-21T05:19:18.966Z,96.0
2023-04-21T05:20:16.533Z,96.0
2023-04-21T05:21:17.092Z,96.0
2023-04-21T05:22:17.147Z,95.9
2023-04-21T05:23:16.741Z,95.6
2023-04-21T05:24:17.887Z,95.6
2023-04-21T05:25:16.587Z,95.5
2023-04-21T05:26:17.131Z,95.6
2023-04-21T05:27:16.705Z,95.3
2023-04-21T05:28:17.295Z,95.3
2023-04-21T05:29:16.843Z,95.1
2023-04-21T05:30:17.423Z,94.9
2023-04-21T05:31:16.971Z,94.6
2023-04-21T05:32:17.510Z,94.7
2023-04-21T05:33:17.205Z,94.6
2023-04-21T05:34:16.843Z,94.7
2023-04-21T05:35:17.534Z,94.6
2023-04-21T05:36:17.065Z,94.7
2023-04-21T05:37:16.624Z,94.7
2023-04-21T05:38:17.174Z,94.7
2023-04-21T05:39:16.743Z,94.1
2023-04-21T05:40:17.268Z,93.8
2023-04-21T05:41:16.792Z,93.2
2023-04-21T05:42:16.940Z,92.7
2023-04-21T05:43:17.484Z,92.9
2023-04-21T05:44:17.405Z,92.5
2023-04-21T05:45:17.118Z,92.6
2023-04-21T05:46:16.750Z,92.8
2023-04-21T05:47:17.347Z,92.7
2023-04-21T05:48:16.966Z,92.8
2023-04-21T05:49:16.598Z,92.4
2023-04-21T05:50:17.159Z,92.7
2023-04-21T05:51:16.739Z,92.6
2023-04-21T05:52:16.678Z,92.9
2023-04-21T05:53:17.204Z,93.2
2023-04-21T05:54:17.041Z,93.4
2023-04-21T05:55:16.662Z,93.5
2023-04-21T05:56:17.219Z,93.5
2023-04-21T05:57:16.774Z,92.7
2023-04-21T05:58:17.344Z,91.7
2023-04-21T05:59:16.914Z,91.0
2023-04-21T06:00:17.473Z,91.3
2023-04-21T06:01:17.039Z,91.5
2023-04-21T06:02:16.968Z,91.3
2023-04-21T06:03:16.906Z,91.8
2023-04-21T06:04:17.121Z,91.9
2023-04-21T06:05:16.993Z,91.3
2023-04-21T06:06:16.620Z,89.4
2023-04-21T06:07:19.028Z,89.7
2023-04-21T06:08:16.596Z,89.6
2023-04-21T06:09:17.173Z,89.6
2023-04-21T06:10:16.795Z,88.2
2023-04-21T06:11:17.378Z,88.6
2023-04-21T06:12:17.366Z,87.4
2023-04-21T06:13:16.947Z,86.8
2023-04-21T06:14:17.861Z,86.3
2023-04-21T06:15:16.579Z,85.9
2023-04-21T06:16:17.253Z,86.1
2023-04-21T06:17:16.821Z,85.4
2023-04-21T06:18:17.390Z,83.8
2023-04-21T06:19:16.953Z,84.9
2023-04-21T06:20:17.508Z,83.2
2023-04-21T06:21:17.077Z,83.6
2023-04-21T06:22:16.896Z,83.3
2023-04-21T06:23:17.461Z,82.9
2023-04-21T06:24:17.359Z,83.1
2023-04-21T06:25:16.999Z,82.2
2023-04-21T06:26:16.656Z,79.3
2023-04-21T06:27:17.295Z,79.1
2023-04-21T06:28:16.825Z,80.3
2023-04-21T06:29:17.364Z,79.6
2023-04-21T06:30:16.920Z,79.1
2023-04-21T06:31:17.484Z,78.2
2023-04-21T06:32:17.266Z,78.0
2023-04-21T06:33:16.823Z,77.3
2023-04-21T06:34:17.717Z,77.9
2023-04-21T06:35:17.443Z,77.0
2023-04-21T06:36:18.393Z,77.1
2023-04-21T06:37:16.974Z,76.9
2023-04-21T06:38:16.534Z,76.6
2023-04-21T06:39:17.117Z,76.6
2023-04-21T06:40:16.772Z,76.5
2023-04-21T06:41:17.330Z,76.8
2023-04-21T06:42:17.205Z,76.6
2023-04-21T06:43:16.792Z,77.9
2023-04-21T06:44:17.770Z,77.3
2023-04-21T06:45:17.506Z,77.1
2023-04-21T06:46:17.058Z,77.1
2023-04-21T06:47:16.801Z,77.1
2023-04-21T06:48:16.651Z,77.0
2023-04-21T06:49:17.709Z,77.6
2023-04-21T06:50:17.455Z,78.3
2023-04-21T06:51:17.046Z,78.2
2023-04-21T06:52:20.151Z,78.2
2023-04-21T06:53:16.779Z,78.0
2023-04-21T06:54:17.342Z,77.7
2023-04-21T06:55:16.972Z,77.7
2023-04-21T06:56:16.555Z,77.8
2023-04-21T06:57:17.161Z,77.8
2023-04-21T06:58:19.149Z,78.5
2023-04-21T06:59:17.416Z,79.5
2023-04-21T07:00:17.179Z,79.3
2023-04-21T07:01:16.769Z,78.3
2023-04-21T07:02:16.864Z,78.7
2023-04-21T07:03:17.833Z,78.5
2023-04-21T07:04:17.627Z,77.9
2023-04-21T07:05:17.261Z,77.5
2023-04-21T07:06:16.813Z,77.4
2023-04-21T07:07:17.413Z,77.2
2023-04-21T07:08:16.961Z,74.7
2023-04-21T07:09:17.966Z,75.1
2023-04-21T07:10:16.674Z,75.2
2023-04-21T07:11:17.220Z,73.4
2023-04-21T07:12:17.251Z,74.2
2023-04-21T07:13:16.816Z,72.0
2023-04-21T07:14:17.375Z,71.8
2023-04-21T07:15:16.936Z,72.8
2023-04-21T07:16:17.581Z,72.5
2023-04-21T07:17:17.139Z,71.0
2023-04-21T07:18:16.798Z,72.7
2023-04-21T07:19:17.812Z,72.4
2023-04-21T07:20:16.671Z,71.6
2023-04-21T07:21:17.228Z,70.8
2023-04-21T07:22:16.517Z,70.9
2023-04-21T07:23:17.088Z,70.9
2023-04-21T07:24:16.630Z,71.3
2023-04-21T07:25:17.275Z,71.4
2023-04-21T07:26:16.844Z,71.7
2023-04-21T07:27:17.409Z,71.4
2023-04-21T07:28:16.964Z,71.9
2023-04-21T07:29:16.670Z,71.9
2023-04-21T07:30:17.270Z,72.4
2023-04-21T07:31:17.004Z,74.5
2023-04-21T07:32:17.373Z,74.0
2023-04-21T07:33:16.913Z,73.4
2023-04-21T07:34:17.492Z,73.4
2023-04-21T07:35:17.658Z,70.9
2023-04-21T07:36:16.727Z,70.6
2023-04-21T07:37:17.320Z,69.6
2023-04-21T07:38:16.884Z,69.5
2023-04-21T07:39:18.237Z,68.9
2023-04-21T07:40:16.912Z,69.3
2023-04-21T07:41:17.479Z,68.5
2023-04-21T07:42:17.306Z,68.3
2023-04-21T07:43:16.874Z,68.0
2023-04-21T07:44:17.478Z,66.9
2023-04-21T07:45:17.108Z,65.5
2023-04-21T07:46:16.695Z,65.0
2023-04-21T07:47:17.310Z,68.2
2023-04-21T07:48:16.924Z,69.7
2023-04-21T07:49:18.314Z,69.5
2023-04-21T07:50:17.011Z,67.9
2023-04-21T07:51:16.555Z,66.8
2023-04-21T07:52:17.338Z,66.6
2023-04-21T07:53:16.890Z,66.1
2023-04-21T07:54:17.464Z,65.1
2023-04-21T07:55:17.038Z,64.9
2023-04-21T07:56:16.610Z,67.7
2023-04-21T07:57:17.180Z,68.3
2023-04-21T07:58:16.758Z,67.3
2023-04-21T07:59:17.790Z,65.2
2023-04-21T08:00:17.485Z,64.3
2023-04-21T08:01:17.113Z,63.8
2023-04-21T08:02:17.561Z,65.6
2023-04-21T08:03:17.570Z,66.6
2023-04-21T08:04:17.899Z,65.5
2023-04-21T08:05:16.938Z,64.9
2023-04-21T08:06:17.372Z,63.1
2023-04-21T08:07:17.148Z,66.0
2023-04-21T08:08:16.694Z,65.9
2023-04-21T08:09:17.716Z,65.2
2023-04-21T08:10:17.425Z,66.2
2023-04-21T08:11:17.009Z,66.5
2023-04-21T08:12:16.934Z,65.3
2023-04-21T08:13:17.524Z,63.2
2023-04-21T08:14:17.432Z,63.4
2023-04-21T08:15:17.463Z,62.4
2023-04-21T08:16:17.125Z,62.2
2023-04-21T08:17:16.736Z,61.2
2023-04-21T08:18:20.577Z,63.3
2023-04-21T08:19:16.892Z,61.7
2023-04-21T08:20:16.549Z,62.8
2023-04-21T08:21:17.114Z,62.3
2023-04-21T08:22:16.680Z,61.3
2023-04-21T08:23:17.282Z,65.6
2023-04-21T08:24:16.969Z,64.7
2023-04-21T08:25:16.579Z,63.8
2023-04-21T08:26:17.137Z,62.3
2023-04-21T08:27:16.717Z,61.2
2023-04-21T08:28:17.278Z,59.9
2023-04-21T08:29:16.896Z,59.4
2023-04-21T08:30:17.465Z,61.3
2023-04-21T08:31:17.190Z,62.7
2023-04-21T08:32:17.472Z,62.0
2023-04-21T08:33:17.183Z,60.1
2023-04-21T08:34:16.812Z,60.1
2023-04-21T08:35:17.352Z,60.7
2023-04-21T08:36:29.695Z,60.6
2023-04-21T08:37:16.780Z,58.9
2023-04-21T08:38:17.443Z,59.6
2023-04-21T08:39:17.330Z,60.3
2023-04-21T08:40:17.009Z,62.0
2023-04-21T08:41:16.595Z,61.1
2023-04-21T08:42:17.370Z,60.7
2023-04-21T08:43:16.923Z,60.4
2023-04-21T08:44:17.920Z,59.1
2023-04-21T08:45:16.576Z,59.0
2023-04-21T08:46:17.270Z,59.8
2023-04-21T08:47:16.916Z,61.8
2023-04-21T08:48:17.494Z,60.4
2023-04-21T08:49:17.122Z,60.2
2023-04-21T08:50:16.767Z,60.4
2023-04-21T08:51:17.347Z,59.0
2023-04-21T08:52:17.310Z,58.1
2023-04-21T08:53:16.895Z,58.3
2023-04-21T08:54:17.491Z,57.8
2023-04-21T08:55:17.035Z,59.1
2023-04-21T08:56:16.616Z,60.3
2023-04-21T08:57:17.214Z,61.0
2023-04-21T08:58:16.754Z,59.7
2023-04-21T08:59:17.481Z,58.8
2023-04-21T09:00:17.172Z,59.1
2023-04-21T09:01:16.942Z,58.9
2023-04-21T09:02:17.772Z,58.4
2023-04-21T09:03:26.452Z,57.7
2023-04-21T09:04:17.735Z,56.5
2023-04-21T09:05:17.113Z,56.3
2023-04-21T09:06:17.690Z,57.0
2023-04-21T09:07:16.698Z,58.8
2023-04-21T09:08:17.298Z,57.9
2023-04-21T09:09:17.258Z,57.7
2023-04-21T09:10:16.941Z,57.8
2023-04-21T09:11:17.571Z,56.9
2023-04-21T09:12:17.335Z,57.2
2023-04-21T09:13:16.890Z,56.9
2023-04-21T09:14:17.461Z,57.0
2023-04-21T09:15:17.016Z,56.1
2023-04-21T09:16:16.743Z,55.5
2023-04-21T09:17:17.411Z,54.9
2023-04-21T09:18:16.989Z,55.1
2023-04-21T09:19:16.694Z,54.2
2023-04-21T09:20:17.328Z,54.6
2023-04-21T09:21:17.212Z,55.5
2023-04-21T09:22:17.283Z,56.5
2023-04-21T09:23:16.837Z,58.7
2023-04-21T09:24:17.423Z,58.0
2023-04-21T09:25:16.960Z,58.7
2023-04-21T09:26:16.591Z,57.6
2023-04-21T09:27:17.196Z,57.4
2023-04-21T09:28:16.801Z,55.1
2023-04-21T09:29:17.976Z,55.2
2023-04-21T09:30:16.659Z,56.2
2023-04-21T09:31:17.691Z,57.2
2023-04-21T09:32:16.957Z,55.5
2023-04-21T09:33:34.505Z,55.9
2023-04-21T09:34:16.685Z,57.1
2023-04-21T09:35:17.233Z,58.5
2023-04-21T09:36:16.824Z,57.9
2023-04-21T09:37:19.370Z,56.7
2023-04-21T09:38:16.920Z,56.6
2023-04-21T09:39:30.408Z,55.9
2023-04-21T09:40:16.993Z,55.6
2023-04-21T09:41:16.541Z,53.2
2023-04-21T09:42:17.533Z,53.5
2023-04-21T09:43:17.081Z,54.1
2023-04-21T09:44:16.674Z,53.3
2023-04-21T09:45:39.443Z,53.3
2023-04-21T09:46:16.670Z,53.4
2023-04-21T09:47:17.235Z,53.2
2023-04-21T09:48:16.802Z,56.5
2023-04-21T09:49:17.403Z,55.8
2023-04-21T09:50:29.149Z,54.2
2023-04-21T09:51:32.576Z,52.8
2023-04-21T09:52:19.991Z,51.5
2023-04-21T09:53:16.676Z,51.3
2023-04-21T09:54:30.260Z,55.1
2023-04-21T09:55:16.995Z,58.0
2023-04-21T09:56:16.558Z,59.4
2023-04-21T09:57:17.160Z,58.3
2023-04-21T09:58:16.697Z,57.0
2023-04-21T09:59:17.223Z,58.0
2023-04-21T10:00:16.910Z,56.0
2023-04-21T10:01:17.620Z,56.3
2023-04-21T10:02:17.198Z,54.3
2023-04-21T10:03:17.251Z,53.7
2023-04-21T10:04:17.526Z,52.1
2023-04-21T10:05:17.513Z,52.0
2023-04-21T10:06:17.120Z,52.4
2023-04-21T10:07:16.695Z,53.5
2023-04-21T10:08:17.405Z,53.8
2023-04-21T10:09:17.021Z,56.5
2023-04-21T10:10:16.567Z,56.0
2023-04-21T10:11:17.121Z,55.1
2023-04-21T10:12:16.858Z,55.8
2023-04-21T10:13:17.425Z,58.6
2023-04-21T10:14:17.099Z,58.9
2023-04-21T10:15:16.791Z,58.1
2023-04-21T10:16:17.415Z,56.6
2023-04-21T10:17:18.468Z,57.7
2023-04-21T10:18:17.104Z,58.0
2023-04-21T10:19:16.731Z,56.9
2023-04-21T10:20:17.449Z,56.1
2023-04-21T10:21:17.000Z,57.0
2023-04-21T10:22:17.326Z,58.8
2023-04-21T10:23:16.888Z,58.5
2023-04-21T10:24:17.961Z,59.4
2023-04-21T10:25:16.636Z,58.1
2023-04-21T10:26:17.176Z,57.0
2023-04-21T10:27:16.723Z,57.1
2023-04-21T10:28:17.345Z,57.2
2023-04-21T10:29:17.038Z,56.8
2023-04-21T10:30:16.754Z,56.4
2023-04-21T10:31:17.494Z,56.2
2023-04-21T10:32:17.216Z,56.1
2023-04-21T10:33:16.813Z,55.3
2023-04-21T10:34:17.401Z,55.3
2023-04-21T10:35:16.984Z,54.5
2023-04-21T10:36:16.571Z,54.4
2023-04-21T10:37:17.394Z,55.0
2023-04-21T10:38:16.947Z,56.1
2023-04-21T10:39:17.758Z,54.9
2023-04-21T10:40:17.426Z,54.0
2023-04-21T10:41:16.990Z,54.0
2023-04-21T10:42:16.710Z,54.0
2023-04-21T10:43:17.364Z,52.9
2023-04-21T10:44:16.999Z,53.2
2023-04-21T10:45:16.533Z,53.9
2023-04-21T10:46:17.115Z,54.4
2023-04-21T10:47:16.802Z,54.3
2023-04-21T10:48:17.354Z,54.6
2023-04-21T10:49:16.900Z,54.9
2023-04-21T10:50:17.444Z,53.5
2023-04-21T10:51:17.008Z,53.0
2023-04-21T10:52:16.800Z,52.1
2023-04-21T10:53:17.365Z,51.8
2023-04-21T10:54:17.211Z,52.4
2023-04-21T10:55:16.927Z,52.0
2023-04-21T10:56:17.507Z,52.1
2023-04-21T10:57:17.097Z,53.7
2023-04-21T10:58:16.668Z,52.4
2023-04-21T10:59:17.225Z,52.8
2023-04-21T11:00:16.827Z,52.9
2023-04-21T11:01:17.495Z,54.3
2023-04-21T11:02:17.988Z,54.4
2023-04-21T11:03:17.055Z,53.0
2023-04-21T11:04:17.238Z,54.7
2023-04-21T11:05:16.896Z,55.7
2023-04-21T11:06:17.454Z,55.2
2023-04-21T11:07:17.025Z,55.3
2023-04-21T11:08:16.600Z,54.3
2023-04-21T11:09:17.166Z,55.0
2023-04-21T11:10:16.756Z,53.5
2023-04-21T11:11:17.292Z,54.7
2023-04-21T11:12:16.851Z,54.1
2023-04-21T11:13:17.390Z,54.2
2023-04-21T11:14:17.244Z,53.6
2023-04-21T11:15:16.969Z,53.6
2023-04-21T11:16:16.615Z,53.2
2023-04-21T11:17:17.212Z,53.8
2023-04-21T11:18:16.799Z,53.4
2023-04-21T11:19:17.346Z,54.2
2023-04-21T11:20:16.984Z,54.3
2023-04-21T11:21:16.542Z,54.1
2023-04-21T11:22:16.619Z,53.1
2023-04-21T11:23:17.165Z,51.8
2023-04-21T11:24:16.736Z,52.0
2023-04-21T11:25:17.302Z,52.5
2023-04-21T11:26:16.835Z,52.8
2023-04-21T11:27:17.445Z,52.9
2023-04-21T11:28:17.010Z,55.1
2023-04-21T11:29:16.573Z,55.1
2023-04-21T11:30:17.137Z,54.9
2023-04-21T11:31:16.806Z,54.6
2023-04-21T11:32:17.384Z,54.5
2023-04-21T11:33:17.111Z,53.9
2023-04-21T11:34:16.705Z,53.9
2023-04-21T11:35:17.297Z,53.1
2023-04-21T11:36:16.821Z,53.5
2023-04-21T11:37:17.378Z,53.7
2023-04-21T11:38:16.966Z,54.5
2023-04-21T11:39:21.645Z,54.8
2023-04-21T11:40:16.634Z,56.0
2023-04-21T11:41:17.206Z,56.6
2023-04-21T11:42:16.605Z,55.4
2023-04-21T11:43:17.184Z,54.9
2023-04-21T11:44:16.749Z,55.5
2023-04-21T11:45:21.437Z,55.1
2023-04-21T11:46:16.871Z,54.6
2023-04-21T11:47:17.487Z,55.3
2023-04-21T11:48:17.069Z,55.3
2023-04-21T11:49:16.603Z,55.8
2023-04-21T11:50:17.155Z,56.3
2023-04-21T11:51:16.710Z,56.2
2023-04-21T11:52:17.373Z,56.4
2023-04-21T11:53:16.978Z,56.6
2023-04-21T11:54:16.522Z,57.0
2023-04-21T11:55:17.076Z,56.7
2023-04-21T11:56:16.611Z,57.0
2023-04-21T11:57:17.171Z,57.4
2023-04-21T11:58:16.775Z,57.4
2023-04-21T11:59:17.337Z,56.9
2023-04-21T12:00:16.912Z,56.9
2023-04-21T12:01:17.555Z,57.7
2023-04-21T12:02:17.292Z,57.8
2023-04-21T12:03:17.198Z,58.1
2023-04-21T12:04:17.403Z,57.9
2023-04-21T12:05:17.012Z,58.2
2023-04-21T12:06:16.887Z,58.0
2023-04-21T12:07:17.538Z,57.7
2023-04-21T12:08:17.077Z,58.1
2023-04-21T12:09:16.658Z,56.9
2023-04-21T12:10:17.234Z,57.5
2023-04-21T12:11:16.764Z,56.9
2023-04-21T12:12:16.621Z,56.8
2023-04-21T12:13:18.455Z,56.6
2023-04-21T12:14:16.988Z,56.6
2023-04-21T12:15:16.574Z,56.6
2023-04-21T12:16:17.269Z,57.0
2023-04-21T12:17:16.866Z,56.8
2023-04-21T12:18:17.393Z,57.2
2023-04-21T12:19:16.982Z,57.8
2023-04-21T12:20:16.581Z,57.8
2023-04-21T12:21:17.120Z,57.4
2023-04-21T12:22:16.796Z,57.7
2023-04-21T12:23:17.341Z,57.9
2023-04-21T12:24:16.892Z,57.3
2023-04-21T12:25:17.470Z,57.2
2023-04-21T12:26:17.035Z,57.4
2023-04-21T12:27:16.655Z,57.1
2023-04-21T12:28:17.246Z,57.1
2023-04-21T12:29:16.787Z,57.0
2023-04-21T12:30:17.441Z,57.7
2023-04-21T12:31:17.084Z,57.4
2023-04-21T12:32:17.587Z,57.1
2023-04-21T12:33:17.534Z,57.7
2023-04-21T12:34:17.246Z,57.9
2023-04-21T12:35:16.860Z,57.0
2023-04-21T12:36:17.389Z,56.8
2023-04-21T12:37:16.922Z,57.0
2023-04-21T12:38:17.496Z,56.9
2023-04-21T12:39:17.065Z,56.6
2023-04-21T12:40:16.603Z,57.1
2023-04-21T12:41:17.196Z,56.5
2023-04-21T12:42:16.760Z,56.6
2023-04-21T12:43:17.330Z,56.4
2023-04-21T12:44:16.872Z,56.6
2023-04-21T12:45:17.458Z,56.8
2023-04-21T12:46:17.104Z,56.4
2023-04-21T12:47:16.736Z,56.5
2023-04-21T12:48:17.448Z,56.3
2023-04-21T12:49:17.057Z,56.6
2023-04-21T12:50:16.673Z,56.6
2023-04-21T12:51:17.266Z,56.7
2023-04-21T12:52:17.378Z,56.6
2023-04-21T12:53:17.037Z,56.3
2023-04-21T12:54:16.644Z,56.5
2023-04-21T12:55:17.290Z,56.9
2023-04-21T12:56:16.925Z,57.1
2023-04-21T12:57:17.507Z,57.0
2023-04-21T12:58:17.089Z,56.8
2023-04-21T12:59:16.623Z,56.9
2023-04-21T13:00:17.210Z,56.9
2023-04-21T13:01:16.890Z,57.2
2023-04-21T13:02:17.488Z,56.8
2023-04-21T13:03:17.403Z,57.3
2023-04-21T13:04:17.961Z,56.8
2023-04-21T13:05:16.733Z,56.8
2023-04-21T13:06:17.332Z,56.3
2023-04-21T13:07:16.914Z,56.4
2023-04-21T13:08:17.454Z,56.2
2023-04-21T13:09:17.079Z,56.4
2023-04-21T13:10:16.672Z,56.2
2023-04-21T13:11:17.272Z,56.3
2023-04-21T13:12:16.750Z,56.4
2023-04-21T13:13:17.291Z,56.7
2023-04-21T13:14:16.826Z,56.6
2023-04-21T13:15:17.370Z,56.4
2023-04-21T13:16:17.020Z,56.2
2023-04-21T13:17:16.924Z,56.2
2023-04-21T13:18:17.542Z,56.4